sensor_id;sensor_type;location;lat;lon;timestamp;temperature;humidity
16060;DHT22;8134;49.552;7.632;2023-02-28T07:58:58;1.20;99.60
16060;DHT22;8134;49.552;7.632;2023-02-28T08:01:24;1.20;99.00
16060;DHT22;8134;49.552;7.632;2023-02-28T08:03:51;1.30;99.40
16060;DHT22;8134;49.552;7.632;2023-02-28T08:06:20;1.30;98.90
16060;DHT22;8134;49.552;7.632;2023-02-28T08:08:46;1.30;98.80
16060;DHT22;8134;49.552;7.632;2023-02-28T08:11:12;1.40;98.80
16060;DHT22;8134;49.552;7.632;2023-02-28T08:13:38;1.50;99.50
16060;DHT22;8134;49.552;7.632;2023-02-28T08:16:10;1.50;98.20
16060;DHT22;8134;49.552;7.632;2023-02-28T08:18:37;1.50;98.30
16060;DHT22;8134;49.552;7.632;2023-02-28T08:21:07;1.50;98.10
16060;DHT22;8134;49.552;7.632;2023-02-28T08:23:34;1.50;97.70
16060;DHT22;8134;49.552;7.632;2023-02-28T08:26:09;1.60;98.30
16060;DHT22;8134;49.552;7.632;2023-02-28T08:28:36;1.70;98.00
16060;DHT22;8134;49.552;7.632;2023-02-28T08:31:06;1.90;97.80
16060;DHT22;8134;49.552;7.632;2023-02-28T08:33:34;2.10;97.40
16060;DHT22;8134;49.552;7.632;2023-02-28T08:36:04;2.10;97.00
16060;DHT22;8134;49.552;7.632;2023-02-28T08:38:30;2.10;96.90
16060;DHT22;8134;49.552;7.632;2023-02-28T08:41:03;2.10;96.50
16060;DHT22;8134;49.552;7.632;2023-02-28T08:43:31;2.00;96.70
16060;DHT22;8134;49.552;7.632;2023-02-28T08:45:56;2.10;96.50
16060;DHT22;8134;49.552;7.632;2023-02-28T08:48:27;2.00;96.30
16060;DHT22;8134;49.552;7.632;2023-02-28T08:53:24;2.10;96.10
16060;DHT22;8134;49.552;7.632;2023-02-28T08:56:04;2.20;96.50
16060;DHT22;8134;49.552;7.632;2023-02-28T08:58:36;2.40;96.00
16060;DHT22;8134;49.552;7.632;2023-02-28T09:01:12;2.50;95.80
16060;DHT22;8134;49.552;7.632;2023-02-28T09:03:41;2.50;95.50
16060;DHT22;8134;49.552;7.632;2023-02-28T09:06:08;2.60;95.30
16060;DHT22;8134;49.552;7.632;2023-02-28T09:08:37;2.60;95.30
16060;DHT22;8134;49.552;7.632;2023-02-28T09:11:02;2.70;95.00
16060;DHT22;8134;49.552;7.632;2023-02-28T09:13:29;2.70;94.90
16060;DHT22;8134;49.552;7.632;2023-02-28T09:15:57;2.80;95.20
16060;DHT22;8134;49.552;7.632;2023-02-28T09:18:22;2.90;94.60
16060;DHT22;8134;49.552;7.632;2023-02-28T09:20:48;3.00;94.30
16060;DHT22;8134;49.552;7.632;2023-02-28T09:23:13;3.10;93.80
16060;DHT22;8134;49.552;7.632;2023-02-28T09:25:46;2.90;94.20
16060;DHT22;8134;49.552;7.632;2023-02-28T09:28:12;3.10;94.90
16060;DHT22;8134;49.552;7.632;2023-02-28T09:30:41;3.20;93.80
16060;DHT22;8134;49.552;7.632;2023-02-28T09:33:06;3.20;94.20
16060;DHT22;8134;49.552;7.632;2023-02-28T09:35:32;3.20;94.00
16060;DHT22;8134;49.552;7.632;2023-02-28T09:37:57;3.30;93.40
16060;DHT22;8134;49.552;7.632;2023-02-28T09:40:24;3.30;93.10
16060;DHT22;8134;49.552;7.632;2023-02-28T09:42:50;3.30;93.20
16060;DHT22;8134;49.552;7.632;2023-02-28T09:47:46;3.40;92.80
16060;DHT22;8134;49.552;7.632;2023-02-28T09:53:02;3.30;92.80
16060;DHT22;8134;49.552;7.632;2023-02-28T09:55:39;3.40;92.60
16060;DHT22;8134;49.552;7.632;2023-02-28T09:58:05;3.50;93.50
16060;DHT22;8134;49.552;7.632;2023-02-28T10:00:40;3.50;92.90
16060;DHT22;8134;49.552;7.632;2023-02-28T10:05:43;3.40;92.00
16060;DHT22;8134;49.552;7.632;2023-02-28T10:08:13;3.30;92.10
16060;DHT22;8134;49.552;7.632;2023-02-28T10:10:43;3.30;92.30
16060;DHT22;8134;49.552;7.632;2023-02-28T10:15:49;3.40;91.70
16060;DHT22;8134;49.552;7.632;2023-02-28T10:18:27;3.50;92.10
16060;DHT22;8134;49.552;7.632;2023-02-28T10:20:55;3.50;92.40
16060;DHT22;8134;49.552;7.632;2023-02-28T10:23:36;3.60;91.70
16060;DHT22;8134;49.552;7.632;2023-02-28T10:26:16;3.70;91.20
16060;DHT22;8134;49.552;7.632;2023-02-28T10:28:42;3.70;91.20
16060;DHT22;8134;49.552;7.632;2023-02-28T10:31:15;3.70;92.60
16060;DHT22;8134;49.552;7.632;2023-02-28T10:33:43;3.60;90.90
16060;DHT22;8134;49.552;7.632;2023-02-28T10:36:10;3.50;91.20
16060;DHT22;8134;49.552;7.632;2023-02-28T10:38:41;3.60;91.60
16060;DHT22;8134;49.552;7.632;2023-02-28T10:41:08;3.70;92.10
16060;DHT22;8134;49.552;7.632;2023-02-28T10:43:36;3.80;91.90
16060;DHT22;8134;49.552;7.632;2023-02-28T10:48:38;3.90;90.50
16060;DHT22;8134;49.552;7.632;2023-02-28T10:51:07;4.10;90.10
16060;DHT22;8134;49.552;7.632;2023-02-28T10:53:38;4.10;89.80
16060;DHT22;8134;49.552;7.632;2023-02-28T10:56:12;4.10;89.60
16060;DHT22;8134;49.552;7.632;2023-02-28T10:58:59;4.20;88.90
16060;DHT22;8134;49.552;7.632;2023-02-28T11:03:50;4.30;88.80
16060;DHT22;8134;49.552;7.632;2023-02-28T11:06:28;4.30;88.10
16060;DHT22;8134;49.552;7.632;2023-02-28T11:08:55;4.30;88.30
16060;DHT22;8134;49.552;7.632;2023-02-28T11:11:22;4.40;89.80
16060;DHT22;8134;49.552;7.632;2023-02-28T11:13:50;4.50;88.60
16060;DHT22;8134;49.552;7.632;2023-02-28T11:16:16;4.50;86.60
16060;DHT22;8134;49.552;7.632;2023-02-28T11:21:07;4.50;88.90
16060;DHT22;8134;49.552;7.632;2023-02-28T11:23:35;4.70;88.20
16060;DHT22;8134;49.552;7.632;2023-02-28T11:26:02;4.70;88.60
16060;DHT22;8134;49.552;7.632;2023-02-28T11:28:31;4.70;86.00
16060;DHT22;8134;49.552;7.632;2023-02-28T11:33:43;4.90;87.90
16060;DHT22;8134;49.552;7.632;2023-02-28T11:36:14;4.90;85.50
16060;DHT22;8134;49.552;7.632;2023-02-28T11:38:41;4.80;85.60
16060;DHT22;8134;49.552;7.632;2023-02-28T11:51:32;4.80;85.10
16060;DHT22;8134;49.552;7.632;2023-02-28T11:54:02;4.70;84.30
16060;DHT22;8134;49.552;7.632;2023-02-28T11:56:38;4.60;84.30
16060;DHT22;8134;49.552;7.632;2023-02-28T12:01:55;4.40;85.10
16060;DHT22;8134;49.552;7.632;2023-02-28T12:04:25;4.60;85.60
16060;DHT22;8134;49.552;7.632;2023-02-28T12:09:32;4.60;84.20
16060;DHT22;8134;49.552;7.632;2023-02-28T12:17:19;4.70;84.20
16060;DHT22;8134;49.552;7.632;2023-02-28T12:27:51;4.80;85.30
16060;DHT22;8134;49.552;7.632;2023-02-28T12:32:52;5.10;83.80
16060;DHT22;8134;49.552;7.632;2023-02-28T12:35:54;5.10;82.50
16060;DHT22;8134;49.552;7.632;2023-02-28T12:38:27;5.20;82.10
16060;DHT22;8134;49.552;7.632;2023-02-28T12:41:02;5.20;82.90
16060;DHT22;8134;49.552;7.632;2023-02-28T12:43:38;5.20;82.40
16060;DHT22;8134;49.552;7.632;2023-02-28T12:46:07;5.20;82.80
16060;DHT22;8134;49.552;7.632;2023-02-28T12:48:56;5.30;82.30
16060;DHT22;8134;49.552;7.632;2023-02-28T12:51:21;5.30;82.00
16060;DHT22;8134;49.552;7.632;2023-02-28T13:09:16;5.40;81.60
16060;DHT22;8134;49.552;7.632;2023-02-28T13:11:44;5.50;80.90
16060;DHT22;8134;49.552;7.632;2023-02-28T13:14:29;5.60;80.80
16060;DHT22;8134;49.552;7.632;2023-02-28T13:16:56;5.70;81.10
16060;DHT22;8134;49.552;7.632;2023-02-28T13:19:23;5.70;79.90
16060;DHT22;8134;49.552;7.632;2023-02-28T13:21:49;5.60;79.50
16060;DHT22;8134;49.552;7.632;2023-02-28T13:25:00;5.60;79.90
16060;DHT22;8134;49.552;7.632;2023-02-28T13:29:33;5.70;80.50
16060;DHT22;8134;49.552;7.632;2023-02-28T13:35:12;5.80;79.50
16060;DHT22;8134;49.552;7.632;2023-02-28T13:39:49;5.90;79.30
16060;DHT22;8134;49.552;7.632;2023-02-28T13:47:36;5.60;79.80
16060;DHT22;8134;49.552;7.632;2023-02-28T13:57:44;5.60;81.20
16060;DHT22;8134;49.552;7.632;2023-02-28T14:00:19;5.60;81.70
16060;DHT22;8134;49.552;7.632;2023-02-28T14:05:31;5.90;82.70
16060;DHT22;8134;49.552;7.632;2023-02-28T14:07:59;6.00;82.60
16060;DHT22;8134;49.552;7.632;2023-02-28T14:10:33;6.10;81.60
16060;DHT22;8134;49.552;7.632;2023-02-28T14:13:01;6.10;79.60
16060;DHT22;8134;49.552;7.632;2023-02-28T14:15:36;6.20;82.30
16060;DHT22;8134;49.552;7.632;2023-02-28T14:18:25;6.20;80.10
16060;DHT22;8134;49.552;7.632;2023-02-28T14:20:52;6.10;79.20
16060;DHT22;8134;49.552;7.632;2023-02-28T14:28:25;6.10;80.20
16060;DHT22;8134;49.552;7.632;2023-02-28T14:33:46;6.10;78.80
16060;DHT22;8134;49.552;7.632;2023-02-28T14:36:21;6.00;78.80
16060;DHT22;8134;49.552;7.632;2023-02-28T14:38:51;6.10;79.20
16060;DHT22;8134;49.552;7.632;2023-02-28T14:41:22;6.10;79.50
16060;DHT22;8134;49.552;7.632;2023-02-28T14:43:51;6.20;78.50
16060;DHT22;8134;49.552;7.632;2023-02-28T14:46:17;6.30;79.30
16060;DHT22;8134;49.552;7.632;2023-02-28T14:48:48;6.40;79.30
16060;DHT22;8134;49.552;7.632;2023-02-28T14:51:18;6.30;78.70
16060;DHT22;8134;49.552;7.632;2023-02-28T14:53:44;6.20;77.30
16060;DHT22;8134;49.552;7.632;2023-02-28T14:56:19;6.20;77.60
16060;DHT22;8134;49.552;7.632;2023-02-28T14:58:51;6.10;77.80
16060;DHT22;8134;49.552;7.632;2023-02-28T15:01:18;6.10;77.90
16060;DHT22;8134;49.552;7.632;2023-02-28T15:03:45;6.10;79.40
16060;DHT22;8134;49.552;7.632;2023-02-28T15:06:14;6.20;78.90
16060;DHT22;8134;49.552;7.632;2023-02-28T15:08:39;6.20;78.40
16060;DHT22;8134;49.552;7.632;2023-02-28T15:11:06;6.30;79.50
16060;DHT22;8134;49.552;7.632;2023-02-28T15:13:43;6.40;79.30
16060;DHT22;8134;49.552;7.632;2023-02-28T15:16:11;6.50;80.10
16060;DHT22;8134;49.552;7.632;2023-02-28T15:18:56;6.50;80.80
16060;DHT22;8134;49.552;7.632;2023-02-28T15:21:27;6.50;79.50
16060;DHT22;8134;49.552;7.632;2023-02-28T15:24:00;6.50;78.40
16060;DHT22;8134;49.552;7.632;2023-02-28T15:26:32;6.40;77.70
16060;DHT22;8134;49.552;7.632;2023-02-28T15:29:00;6.40;78.60
16060;DHT22;8134;49.552;7.632;2023-02-28T15:31:27;6.40;77.40
16060;DHT22;8134;49.552;7.632;2023-02-28T15:33:54;6.50;78.10
16060;DHT22;8134;49.552;7.632;2023-02-28T15:36:30;6.40;78.00
16060;DHT22;8134;49.552;7.632;2023-02-28T15:38:58;6.30;77.40
16060;DHT22;8134;49.552;7.632;2023-02-28T15:41:28;6.20;78.00
16060;DHT22;8134;49.552;7.632;2023-02-28T15:46:39;6.00;79.20
16060;DHT22;8134;49.552;7.632;2023-02-28T15:49:12;5.80;78.40
16060;DHT22;8134;49.552;7.632;2023-02-28T15:51:42;5.70;78.90
16060;DHT22;8134;49.552;7.632;2023-02-28T15:54:10;5.80;80.20
16060;DHT22;8134;49.552;7.632;2023-02-28T15:56:48;5.70;80.10
16060;DHT22;8134;49.552;7.632;2023-02-28T15:59:25;5.70;79.80
16060;DHT22;8134;49.552;7.632;2023-02-28T16:04:29;5.60;79.90
16060;DHT22;8134;49.552;7.632;2023-02-28T16:09:25;5.60;79.80
16060;DHT22;8134;49.552;7.632;2023-02-28T16:11:53;5.60;79.80
16060;DHT22;8134;49.552;7.632;2023-02-28T16:14:29;5.50;79.70
16060;DHT22;8134;49.552;7.632;2023-02-28T16:16:57;5.60;80.10
16060;DHT22;8134;49.552;7.632;2023-02-28T16:19:27;5.40;83.20
16060;DHT22;8134;49.552;7.632;2023-02-28T16:21:52;5.40;81.60
16060;DHT22;8134;49.552;7.632;2023-02-28T16:24:18;5.40;80.60
16060;DHT22;8134;49.552;7.632;2023-02-28T16:26:47;5.40;81.30
16060;DHT22;8134;49.552;7.632;2023-02-28T16:29:19;5.30;80.70
16060;DHT22;8134;49.552;7.632;2023-02-28T16:31:47;5.30;80.80
16060;DHT22;8134;49.552;7.632;2023-02-28T16:34:13;5.30;82.90
16060;DHT22;8134;49.552;7.632;2023-02-28T16:36:38;5.20;81.00
16060;DHT22;8134;49.552;7.632;2023-02-28T16:39:04;5.20;81.40
16060;DHT22;8134;49.552;7.632;2023-02-28T16:41:30;5.10;81.30
16060;DHT22;8134;49.552;7.632;2023-02-28T16:43:56;5.10;83.50
16060;DHT22;8134;49.552;7.632;2023-02-28T16:46:27;5.00;83.20
16060;DHT22;8134;49.552;7.632;2023-02-28T16:48:57;5.00;84.50
16060;DHT22;8134;49.552;7.632;2023-02-28T16:51:22;5.00;87.10
16060;DHT22;8134;49.552;7.632;2023-02-28T16:53:48;4.90;85.80
16060;DHT22;8134;49.552;7.632;2023-02-28T16:56:18;4.60;87.30
16060;DHT22;8134;49.552;7.632;2023-02-28T16:58:44;4.40;88.40
16060;DHT22;8134;49.552;7.632;2023-02-28T17:01:10;4.10;87.80
16060;DHT22;8134;49.552;7.632;2023-02-28T17:03:36;3.90;88.70
16060;DHT22;8134;49.552;7.632;2023-02-28T17:06:03;3.80;90.60
16060;DHT22;8134;49.552;7.632;2023-02-28T17:08:32;3.50;91.70
16060;DHT22;8134;49.552;7.632;2023-02-28T17:10:58;3.20;91.80
16060;DHT22;8134;49.552;7.632;2023-02-28T17:13:24;3.00;92.20
16060;DHT22;8134;49.552;7.632;2023-02-28T17:15:49;3.00;92.20
16060;DHT22;8134;49.552;7.632;2023-02-28T17:18:15;3.00;91.70
16060;DHT22;8134;49.552;7.632;2023-02-28T17:20:44;3.00;92.20
16060;DHT22;8134;49.552;7.632;2023-02-28T17:23:10;2.90;92.80
16060;DHT22;8134;49.552;7.632;2023-02-28T17:25:35;2.70;93.20
16060;DHT22;8134;49.552;7.632;2023-02-28T17:28:01;2.50;93.70
16060;DHT22;8134;49.552;7.632;2023-02-28T17:30:27;2.30;94.20
16060;DHT22;8134;49.552;7.632;2023-02-28T17:32:53;2.20;95.00
16060;DHT22;8134;49.552;7.632;2023-02-28T17:35:22;2.00;95.40
16060;DHT22;8134;49.552;7.632;2023-02-28T17:37:47;1.90;95.70
16060;DHT22;8134;49.552;7.632;2023-02-28T17:40:17;1.90;96.30
16060;DHT22;8134;49.552;7.632;2023-02-28T17:42:43;1.80;96.50
16060;DHT22;8134;49.552;7.632;2023-02-28T17:45:09;1.70;96.90
16060;DHT22;8134;49.552;7.632;2023-02-28T17:47:34;1.70;97.10
16060;DHT22;8134;49.552;7.632;2023-02-28T17:50:00;1.60;97.60
16060;DHT22;8134;49.552;7.632;2023-02-28T17:52:25;1.50;98.00
16060;DHT22;8134;49.552;7.632;2023-02-28T17:54:51;1.40;98.00
16060;DHT22;8134;49.552;7.632;2023-02-28T17:57:16;1.30;98.20
16060;DHT22;8134;49.552;7.632;2023-02-28T17:59:42;1.30;98.30
16060;DHT22;8134;49.552;7.632;2023-02-28T18:02:09;1.30;98.30
16060;DHT22;8134;49.552;7.632;2023-02-28T18:04:35;1.30;98.50
16060;DHT22;8134;49.552;7.632;2023-02-28T18:07:00;1.20;98.80
16060;DHT22;8134;49.552;7.632;2023-02-28T18:09:26;1.20;99.20
16060;DHT22;8134;49.552;7.632;2023-02-28T18:11:52;1.10;99.20
16060;DHT22;8134;49.552;7.632;2023-02-28T18:14:20;1.00;99.40
16060;DHT22;8134;49.552;7.632;2023-02-28T18:16:46;1.00;99.20
16060;DHT22;8134;49.552;7.632;2023-02-28T18:19:11;0.90;99.40
16060;DHT22;8134;49.552;7.632;2023-02-28T18:21:42;0.90;99.50
16060;DHT22;8134;49.552;7.632;2023-02-28T18:24:08;0.80;99.00
16060;DHT22;8134;49.552;7.632;2023-02-28T18:26:33;0.90;99.40
16060;DHT22;8134;49.552;7.632;2023-02-28T18:29:00;0.90;99.80
16060;DHT22;8134;49.552;7.632;2023-02-28T18:31:25;1.00;99.60
16060;DHT22;8134;49.552;7.632;2023-02-28T18:33:51;0.90;99.80
16060;DHT22;8134;49.552;7.632;2023-02-28T18:36:17;0.80;99.70
16060;DHT22;8134;49.552;7.632;2023-02-28T18:38:43;0.70;99.70
16060;DHT22;8134;49.552;7.632;2023-02-28T18:41:10;0.60;99.90
16060;DHT22;8134;49.552;7.632;2023-02-28T18:43:36;0.60;99.80
16060;DHT22;8134;49.552;7.632;2023-02-28T18:46:06;0.60;99.40
16060;DHT22;8134;49.552;7.632;2023-02-28T18:48:33;0.50;99.80
16060;DHT22;8134;49.552;7.632;2023-02-28T18:51:20;0.50;99.70
16060;DHT22;8134;49.552;7.632;2023-02-28T18:53:44;0.40;99.90
16060;DHT22;8134;49.552;7.632;2023-02-28T18:56:11;0.30;99.90
16060;DHT22;8134;49.552;7.632;2023-02-28T18:58:40;0.20;99.90
16060;DHT22;8134;49.552;7.632;2023-02-28T19:01:12;0.20;99.90
16060;DHT22;8134;49.552;7.632;2023-02-28T19:03:38;0.20;99.90
16060;DHT22;8134;49.552;7.632;2023-02-28T19:06:03;0.20;99.90
16060;DHT22;8134;49.552;7.632;2023-02-28T19:08:29;0.20;99.90
16060;DHT22;8134;49.552;7.632;2023-02-28T19:10:54;0.20;99.90
16060;DHT22;8134;49.552;7.632;2023-02-28T19:13:20;0.10;99.90
16060;DHT22;8134;49.552;7.632;2023-02-28T19:15:49;0.10;99.90
16060;DHT22;8134;49.552;7.632;2023-02-28T19:18:17;0.10;99.90
16060;DHT22;8134;49.552;7.632;2023-02-28T19:20:44;0.10;99.90
16060;DHT22;8134;49.552;7.632;2023-02-28T19:23:10;0.00;99.90
16060;DHT22;8134;49.552;7.632;2023-02-28T19:25:40;0.00;99.90
16060;DHT22;8134;49.552;7.632;2023-02-28T19:28:06;0.00;99.90
16060;DHT22;8134;49.552;7.632;2023-02-28T19:30:32;0.00;99.90
16060;DHT22;8134;49.552;7.632;2023-02-28T19:32:57;-0.10;99.90
16060;DHT22;8134;49.552;7.632;2023-02-28T19:35:23;-0.10;99.90
16060;DHT22;8134;49.552;7.632;2023-02-28T19:37:48;-0.10;99.90
16060;DHT22;8134;49.552;7.632;2023-02-28T19:40:14;-0.20;99.90
16060;DHT22;8134;49.552;7.632;2023-02-28T19:42:41;-0.20;99.90
16060;DHT22;8134;49.552;7.632;2023-02-28T19:45:07;-0.20;99.90
16060;DHT22;8134;49.552;7.632;2023-02-28T19:47:34;-0.20;99.90
16060;DHT22;8134;49.552;7.632;2023-02-28T19:49:59;-0.20;99.90
16060;DHT22;8134;49.552;7.632;2023-02-28T19:52:25;-0.20;99.90
16060;DHT22;8134;49.552;7.632;2023-02-28T19:54:51;-0.30;99.90
16060;DHT22;8134;49.552;7.632;2023-02-28T19:57:16;-0.30;99.90
16060;DHT22;8134;49.552;7.632;2023-02-28T19:59:45;-0.30;99.90
16060;DHT22;8134;49.552;7.632;2023-02-28T20:02:12;-0.30;99.90
16060;DHT22;8134;49.552;7.632;2023-02-28T20:04:38;-0.30;99.90
16060;DHT22;8134;49.552;7.632;2023-02-28T20:07:04;-0.30;99.90
16060;DHT22;8134;49.552;7.632;2023-02-28T20:09:29;-0.30;99.90
16060;DHT22;8134;49.552;7.632;2023-02-28T20:11:56;-0.40;99.90
16060;DHT22;8134;49.552;7.632;2023-02-28T20:14:24;-0.40;99.90
16060;DHT22;8134;49.552;7.632;2023-02-28T20:16:50;-0.50;99.90
16060;DHT22;8134;49.552;7.632;2023-02-28T20:19:15;-0.40;99.90
16060;DHT22;8134;49.552;7.632;2023-02-28T20:21:42;-0.60;99.90
16060;DHT22;8134;49.552;7.632;2023-02-28T20:24:08;-0.60;99.90
16060;DHT22;8134;49.552;7.632;2023-02-28T20:26:37;-0.70;99.90
16060;DHT22;8134;49.552;7.632;2023-02-28T20:29:03;-0.70;99.90
16060;DHT22;8134;49.552;7.632;2023-02-28T20:31:28;-0.70;99.90
16060;DHT22;8134;49.552;7.632;2023-02-28T20:33:54;-0.70;99.90
16060;DHT22;8134;49.552;7.632;2023-02-28T20:36:20;-0.80;99.90
16060;DHT22;8134;49.552;7.632;2023-02-28T20:38:47;-0.70;99.90
16060;DHT22;8134;49.552;7.632;2023-02-28T20:41:13;-0.70;99.90
16060;DHT22;8134;49.552;7.632;2023-02-28T20:43:39;-0.70;99.90
16060;DHT22;8134;49.552;7.632;2023-02-28T20:46:08;-0.70;99.90
16060;DHT22;8134;49.552;7.632;2023-02-28T20:48:34;-0.80;99.90
16060;DHT22;8134;49.552;7.632;2023-02-28T20:51:00;-0.80;99.90
16060;DHT22;8134;49.552;7.632;2023-02-28T20:53:31;-0.90;99.90
16060;DHT22;8134;49.552;7.632;2023-02-28T20:55:58;-0.80;99.90
16060;DHT22;8134;49.552;7.632;2023-02-28T20:58:25;-0.80;99.90
16060;DHT22;8134;49.552;7.632;2023-02-28T21:01:01;-0.90;99.90
16060;DHT22;8134;49.552;7.632;2023-02-28T21:03:26;-0.80;99.90
16060;DHT22;8134;49.552;7.632;2023-02-28T21:05:59;-0.80;99.90
16060;DHT22;8134;49.552;7.632;2023-02-28T21:08:25;-0.80;99.90
16060;DHT22;8134;49.552;7.632;2023-02-28T21:10:51;-0.90;99.90
16060;DHT22;8134;49.552;7.632;2023-02-28T21:13:21;-0.90;99.90
16060;DHT22;8134;49.552;7.632;2023-02-28T21:15:46;-0.90;99.90
16060;DHT22;8134;49.552;7.632;2023-02-28T21:18:12;-0.90;99.90
16060;DHT22;8134;49.552;7.632;2023-02-28T21:20:37;-0.80;99.90
16060;DHT22;8134;49.552;7.632;2023-02-28T21:23:06;-0.80;99.90
16060;DHT22;8134;49.552;7.632;2023-02-28T21:25:35;-0.70;99.90
16060;DHT22;8134;49.552;7.632;2023-02-28T21:28:00;-0.70;99.90
16060;DHT22;8134;49.552;7.632;2023-02-28T21:30:28;-0.70;99.90
16060;DHT22;8134;49.552;7.632;2023-02-28T21:32:54;-0.60;99.90
16060;DHT22;8134;49.552;7.632;2023-02-28T21:35:21;-0.60;99.90
16060;DHT22;8134;49.552;7.632;2023-02-28T21:37:47;-0.60;99.90
16060;DHT22;8134;49.552;7.632;2023-02-28T21:40:12;-0.70;99.90
16060;DHT22;8134;49.552;7.632;2023-02-28T21:42:38;-0.70;99.90
16060;DHT22;8134;49.552;7.632;2023-02-28T21:45:07;-0.60;99.90
16060;DHT22;8134;49.552;7.632;2023-02-28T21:47:36;-0.60;99.90
16060;DHT22;8134;49.552;7.632;2023-02-28T21:50:08;-0.60;99.90
16060;DHT22;8134;49.552;7.632;2023-02-28T21:52:38;-0.60;99.90
16060;DHT22;8134;49.552;7.632;2023-02-28T21:55:10;-0.70;99.90
